sensor_id;sensor_type;location;lat;lon;timestamp;P1;durP1;ratioP1;P2;durP2;ratioP2
53108;SDS011;39007;53.090;6.074;2024-03-08T00:01:30;37.42;;;22.70;;
53108;SDS011;39007;53.090;6.074;2024-03-08T00:03:57;33.50;;;21.80;;
53108;SDS011;39007;53.090;6.074;2024-03-08T00:06:23;36.13;;;22.40;;
53108;SDS011;39007;53.090;6.074;2024-03-08T00:08:49;32.72;;;21.75;;
53108;SDS011;39007;53.090;6.074;2024-03-08T00:11:16;36.08;;;23.50;;
53108;SDS011;39007;53.090;6.074;2024-03-08T00:13:42;33.63;;;21.92;;
53108;SDS011;39007;53.090;6.074;2024-03-08T00:16:10;36.72;;;23.08;;
53108;SDS011;39007;53.090;6.074;2024-03-08T00:18:36;36.00;;;22.83;;
53108;SDS011;39007;53.090;6.074;2024-03-08T00:21:02;39.05;;;22.40;;
53108;SDS011;39007;53.090;6.074;2024-03-08T00:23:28;33.92;;;22.38;;
53108;SDS011;39007;53.090;6.074;2024-03-08T00:25:54;38.25;;;23.00;;
53108;SDS011;39007;53.090;6.074;2024-03-08T00:28:21;36.08;;;22.50;;
53108;SDS011;39007;53.090;6.074;2024-03-08T00:30:47;34.00;;;22.48;;
53108;SDS011;39007;53.090;6.074;2024-03-08T00:33:13;39.13;;;23.15;;
53108;SDS011;39007;53.090;6.074;2024-03-08T00:35:39;33.10;;;22.38;;
53108;SDS011;39007;53.090;6.074;2024-03-08T00:38:05;37.33;;;23.23;;
53108;SDS011;39007;53.090;6.074;2024-03-08T00:40:31;35.20;;;22.65;;
53108;SDS011;39007;53.090;6.074;2024-03-08T00:42:57;37.13;;;23.80;;
53108;SDS011;39007;53.090;6.074;2024-03-08T00:45:23;34.97;;;22.27;;
53108;SDS011;39007;53.090;6.074;2024-03-08T00:47:49;33.03;;;22.45;;
53108;SDS011;39007;53.090;6.074;2024-03-08T00:50:16;36.55;;;23.13;;
53108;SDS011;39007;53.090;6.074;2024-03-08T00:52:43;36.78;;;23.70;;
53108;SDS011;39007;53.090;6.074;2024-03-08T00:55:09;37.42;;;24.40;;
53108;SDS011;39007;53.090;6.074;2024-03-08T00:57:36;36.42;;;22.88;;
53108;SDS011;39007;53.090;6.074;2024-03-08T01:00:04;38.83;;;23.85;;
53108;SDS011;39007;53.090;6.074;2024-03-08T01:02:34;34.00;;;23.20;;
53108;SDS011;39007;53.090;6.074;2024-03-08T01:05:01;35.95;;;23.80;;
53108;SDS011;39007;53.090;6.074;2024-03-08T01:07:27;32.97;;;23.38;;
53108;SDS011;39007;53.090;6.074;2024-03-08T01:09:53;37.63;;;23.20;;
53108;SDS011;39007;53.090;6.074;2024-03-08T01:12:19;38.03;;;24.38;;
53108;SDS011;39007;53.090;6.074;2024-03-08T01:14:47;34.70;;;22.90;;
53108;SDS011;39007;53.090;6.074;2024-03-08T01:17:13;40.85;;;24.95;;
53108;SDS011;39007;53.090;6.074;2024-03-08T01:19:39;39.72;;;24.23;;
53108;SDS011;39007;53.090;6.074;2024-03-08T01:22:05;36.38;;;24.05;;
53108;SDS011;39007;53.090;6.074;2024-03-08T01:24:31;35.30;;;24.27;;
53108;SDS011;39007;53.090;6.074;2024-03-08T01:26:57;37.47;;;24.38;;
53108;SDS011;39007;53.090;6.074;2024-03-08T01:29:23;39.42;;;25.58;;
53108;SDS011;39007;53.090;6.074;2024-03-08T01:31:49;41.17;;;25.35;;
53108;SDS011;39007;53.090;6.074;2024-03-08T01:34:17;38.53;;;25.88;;
53108;SDS011;39007;53.090;6.074;2024-03-08T01:36:43;41.60;;;26.17;;
53108;SDS011;39007;53.090;6.074;2024-03-08T01:39:10;43.95;;;25.48;;
53108;SDS011;39007;53.090;6.074;2024-03-08T01:41:36;37.22;;;25.05;;
53108;SDS011;39007;53.090;6.074;2024-03-08T01:44:02;43.40;;;26.40;;
53108;SDS011;39007;53.090;6.074;2024-03-08T01:46:29;40.53;;;26.15;;
53108;SDS011;39007;53.090;6.074;2024-03-08T01:48:55;43.22;;;25.88;;
53108;SDS011;39007;53.090;6.074;2024-03-08T01:51:22;38.95;;;25.02;;
53108;SDS011;39007;53.090;6.074;2024-03-08T01:53:48;41.65;;;26.58;;
53108;SDS011;39007;53.090;6.074;2024-03-08T01:56:14;43.60;;;26.00;;
53108;SDS011;39007;53.090;6.074;2024-03-08T01:58:41;41.83;;;26.55;;
53108;SDS011;39007;53.090;6.074;2024-03-08T02:01:08;41.55;;;26.60;;
53108;SDS011;39007;53.090;6.074;2024-03-08T02:03:36;42.92;;;25.98;;
53108;SDS011;39007;53.090;6.074;2024-03-08T02:06:02;37.55;;;25.90;;
53108;SDS011;39007;53.090;6.074;2024-03-08T02:08:30;45.20;;;27.85;;
53108;SDS011;39007;53.090;6.074;2024-03-08T02:10:56;41.63;;;25.88;;
53108;SDS011;39007;53.090;6.074;2024-03-08T02:13:23;42.85;;;26.25;;
53108;SDS011;39007;53.090;6.074;2024-03-08T02:15:55;43.75;;;26.58;;
53108;SDS011;39007;53.090;6.074;2024-03-08T02:18:22;38.95;;;26.80;;
53108;SDS011;39007;53.090;6.074;2024-03-08T02:23:20;40.92;;;27.90;;
53108;SDS011;39007;53.090;6.074;2024-03-08T02:25:47;44.60;;;27.35;;
53108;SDS011;39007;53.090;6.074;2024-03-08T02:28:14;46.20;;;27.23;;
53108;SDS011;39007;53.090;6.074;2024-03-08T02:30:40;42.20;;;27.80;;
53108;SDS011;39007;53.090;6.074;2024-03-08T02:33:07;40.55;;;27.95;;
53108;SDS011;39007;53.090;6.074;2024-03-08T02:35:36;40.90;;;28.45;;
53108;SDS011;39007;53.090;6.074;2024-03-08T02:38:05;44.25;;;27.58;;
53108;SDS011;39007;53.090;6.074;2024-03-08T02:40:31;42.92;;;26.75;;
53108;SDS011;39007;53.090;6.074;2024-03-08T02:42:57;42.22;;;26.48;;
53108;SDS011;39007;53.090;6.074;2024-03-08T02:45:23;43.92;;;27.23;;
53108;SDS011;39007;53.090;6.074;2024-03-08T02:47:50;40.92;;;27.42;;
53108;SDS011;39007;53.090;6.074;2024-03-08T02:50:16;47.30;;;28.63;;
53108;SDS011;39007;53.090;6.074;2024-03-08T02:52:42;47.17;;;28.65;;
53108;SDS011;39007;53.090;6.074;2024-03-08T02:55:09;44.72;;;26.73;;
53108;SDS011;39007;53.090;6.074;2024-03-08T02:57:36;42.03;;;27.58;;
53108;SDS011;39007;53.090;6.074;2024-03-08T03:00:02;43.95;;;28.55;;
53108;SDS011;39007;53.090;6.074;2024-03-08T03:02:34;48.05;;;28.85;;
53108;SDS011;39007;53.090;6.074;2024-03-08T03:05:00;43.22;;;27.15;;
53108;SDS011;39007;53.090;6.074;2024-03-08T03:07:30;47.83;;;29.10;;
53108;SDS011;39007;53.090;6.074;2024-03-08T03:09:57;42.10;;;27.58;;
53108;SDS011;39007;53.090;6.074;2024-03-08T03:12:23;46.72;;;27.55;;
53108;SDS011;39007;53.090;6.074;2024-03-08T03:14:49;44.38;;;27.52;;
53108;SDS011;39007;53.090;6.074;2024-03-08T03:17:15;43.88;;;27.90;;
53108;SDS011;39007;53.090;6.074;2024-03-08T03:19:41;49.63;;;28.42;;
53108;SDS011;39007;53.090;6.074;2024-03-08T03:22:08;46.33;;;29.63;;
53108;SDS011;39007;53.090;6.074;2024-03-08T03:24:35;43.95;;;26.80;;
53108;SDS011;39007;53.090;6.074;2024-03-08T03:27:06;47.70;;;28.13;;
53108;SDS011;39007;53.090;6.074;2024-03-08T03:29:36;46.58;;;27.27;;
53108;SDS011;39007;53.090;6.074;2024-03-08T03:32:02;43.60;;;26.65;;
53108;SDS011;39007;53.090;6.074;2024-03-08T03:34:29;45.38;;;28.25;;
53108;SDS011;39007;53.090;6.074;2024-03-08T03:36:55;43.70;;;27.30;;
53108;SDS011;39007;53.090;6.074;2024-03-08T03:39:22;43.58;;;27.17;;
53108;SDS011;39007;53.090;6.074;2024-03-08T03:41:48;45.70;;;25.83;;
53108;SDS011;39007;53.090;6.074;2024-03-08T03:44:17;44.08;;;27.85;;
53108;SDS011;39007;53.090;6.074;2024-03-08T03:46:43;44.42;;;27.25;;
53108;SDS011;39007;53.090;6.074;2024-03-08T03:49:09;46.33;;;28.15;;
53108;SDS011;39007;53.090;6.074;2024-03-08T03:51:35;41.38;;;25.48;;
53108;SDS011;39007;53.090;6.074;2024-03-08T03:54:01;43.20;;;27.50;;
53108;SDS011;39007;53.090;6.074;2024-03-08T03:56:28;42.65;;;25.50;;
53108;SDS011;39007;53.090;6.074;2024-03-08T03:58:55;46.58;;;27.25;;
53108;SDS011;39007;53.090;6.074;2024-03-08T04:01:21;42.33;;;26.77;;
53108;SDS011;39007;53.090;6.074;2024-03-08T04:03:49;39.03;;;25.73;;
53108;SDS011;39007;53.090;6.074;2024-03-08T04:06:15;43.22;;;27.23;;
53108;SDS011;39007;53.090;6.074;2024-03-08T04:08:41;42.15;;;26.38;;
53108;SDS011;39007;53.090;6.074;2024-03-08T04:11:07;47.13;;;27.05;;
53108;SDS011;39007;53.090;6.074;2024-03-08T04:13:33;40.10;;;26.60;;
53108;SDS011;39007;53.090;6.074;2024-03-08T04:16:01;43.33;;;26.17;;
53108;SDS011;39007;53.090;6.074;2024-03-08T04:18:27;40.15;;;25.38;;
53108;SDS011;39007;53.090;6.074;2024-03-08T04:20:54;43.03;;;26.95;;
53108;SDS011;39007;53.090;6.074;2024-03-08T04:23:20;42.55;;;27.48;;
53108;SDS011;39007;53.090;6.074;2024-03-08T04:25:46;37.42;;;25.30;;
53108;SDS011;39007;53.090;6.074;2024-03-08T04:28:12;41.72;;;26.45;;
53108;SDS011;39007;53.090;6.074;2024-03-08T04:30:39;38.03;;;25.77;;
53108;SDS011;39007;53.090;6.074;2024-03-08T04:33:05;40.08;;;25.58;;
53108;SDS011;39007;53.090;6.074;2024-03-08T04:35:32;44.42;;;26.30;;
53108;SDS011;39007;53.090;6.074;2024-03-08T04:37:58;41.17;;;25.63;;
53108;SDS011;39007;53.090;6.074;2024-03-08T04:40:24;40.38;;;26.30;;
53108;SDS011;39007;53.090;6.074;2024-03-08T04:42:50;41.90;;;25.83;;
53108;SDS011;39007;53.090;6.074;2024-03-08T04:45:17;39.28;;;25.33;;
53108;SDS011;39007;53.090;6.074;2024-03-08T04:47:43;42.33;;;25.55;;
53108;SDS011;39007;53.090;6.074;2024-03-08T04:50:09;40.33;;;25.58;;
53108;SDS011;39007;53.090;6.074;2024-03-08T04:52:36;39.50;;;26.30;;
53108;SDS011;39007;53.090;6.074;2024-03-08T04:55:02;46.47;;;26.50;;
53108;SDS011;39007;53.090;6.074;2024-03-08T04:57:31;37.33;;;25.40;;
53108;SDS011;39007;53.090;6.074;2024-03-08T04:59:58;43.50;;;26.15;;
53108;SDS011;39007;53.090;6.074;2024-03-08T05:02:24;41.65;;;26.42;;
53108;SDS011;39007;53.090;6.074;2024-03-08T05:04:50;40.15;;;25.35;;
53108;SDS011;39007;53.090;6.074;2024-03-08T05:07:17;45.55;;;25.60;;
53108;SDS011;39007;53.090;6.074;2024-03-08T05:09:44;38.47;;;24.60;;
53108;SDS011;39007;53.090;6.074;2024-03-08T05:12:17;36.67;;;24.75;;
53108;SDS011;39007;53.090;6.074;2024-03-08T05:14:44;38.45;;;25.10;;
53108;SDS011;39007;53.090;6.074;2024-03-08T05:17:11;38.42;;;24.83;;
53108;SDS011;39007;53.090;6.074;2024-03-08T05:19:37;39.20;;;25.27;;
53108;SDS011;39007;53.090;6.074;2024-03-08T05:22:03;40.15;;;24.30;;
53108;SDS011;39007;53.090;6.074;2024-03-08T05:24:29;39.10;;;25.33;;
53108;SDS011;39007;53.090;6.074;2024-03-08T05:26:56;40.47;;;25.15;;
53108;SDS011;39007;53.090;6.074;2024-03-08T05:29:22;43.90;;;25.23;;
53108;SDS011;39007;53.090;6.074;2024-03-08T05:34:15;38.50;;;24.45;;
53108;SDS011;39007;53.090;6.074;2024-03-08T05:36:41;40.65;;;23.63;;
53108;SDS011;39007;53.090;6.074;2024-03-08T05:39:14;41.58;;;25.25;;
53108;SDS011;39007;53.090;6.074;2024-03-08T05:41:40;39.97;;;24.63;;
53108;SDS011;39007;53.090;6.074;2024-03-08T05:44:06;38.10;;;25.10;;
53108;SDS011;39007;53.090;6.074;2024-03-08T05:46:32;46.13;;;26.77;;
53108;SDS011;39007;53.090;6.074;2024-03-08T05:48:59;39.20;;;25.10;;
53108;SDS011;39007;53.090;6.074;2024-03-08T05:51:25;38.58;;;25.50;;
53108;SDS011;39007;53.090;6.074;2024-03-08T05:53:52;37.72;;;24.10;;
53108;SDS011;39007;53.090;6.074;2024-03-08T05:56:21;39.67;;;25.17;;
53108;SDS011;39007;53.090;6.074;2024-03-08T05:58:48;41.95;;;25.42;;
53108;SDS011;39007;53.090;6.074;2024-03-08T06:01:15;42.83;;;25.08;;
53108;SDS011;39007;53.090;6.074;2024-03-08T06:03:41;36.83;;;23.90;;
53108;SDS011;39007;53.090;6.074;2024-03-08T06:06:13;39.17;;;25.52;;
53108;SDS011;39007;53.090;6.074;2024-03-08T06:08:39;41.00;;;25.05;;
53108;SDS011;39007;53.090;6.074;2024-03-08T06:11:08;39.78;;;25.10;;
53108;SDS011;39007;53.090;6.074;2024-03-08T06:13:34;39.53;;;24.40;;
53108;SDS011;39007;53.090;6.074;2024-03-08T06:16:01;41.67;;;25.65;;
53108;SDS011;39007;53.090;6.074;2024-03-08T06:18:33;40.17;;;24.60;;
53108;SDS011;39007;53.090;6.074;2024-03-08T06:20:59;40.72;;;23.95;;
53108;SDS011;39007;53.090;6.074;2024-03-08T06:23:25;37.03;;;25.02;;
53108;SDS011;39007;53.090;6.074;2024-03-08T06:25:52;39.25;;;25.02;;
53108;SDS011;39007;53.090;6.074;2024-03-08T06:28:19;37.53;;;24.58;;
53108;SDS011;39007;53.090;6.074;2024-03-08T06:30:45;36.60;;;24.65;;
53108;SDS011;39007;53.090;6.074;2024-03-08T06:33:11;36.75;;;24.10;;
53108;SDS011;39007;53.090;6.074;2024-03-08T06:35:37;39.53;;;24.30;;
53108;SDS011;39007;53.090;6.074;2024-03-08T06:38:04;35.75;;;23.30;;
53108;SDS011;39007;53.090;6.074;2024-03-08T06:40:30;40.53;;;24.08;;
53108;SDS011;39007;53.090;6.074;2024-03-08T06:42:56;37.63;;;23.52;;
53108;SDS011;39007;53.090;6.074;2024-03-08T06:45:22;38.33;;;24.80;;
53108;SDS011;39007;53.090;6.074;2024-03-08T06:47:49;35.92;;;22.88;;
53108;SDS011;39007;53.090;6.074;2024-03-08T06:50:15;37.67;;;24.73;;
53108;SDS011;39007;53.090;6.074;2024-03-08T06:52:41;40.30;;;24.92;;
53108;SDS011;39007;53.090;6.074;2024-03-08T06:55:08;45.25;;;24.60;;
53108;SDS011;39007;53.090;6.074;2024-03-08T06:57:40;39.83;;;25.05;;
53108;SDS011;39007;53.090;6.074;2024-03-08T07:00:09;36.97;;;23.30;;
53108;SDS011;39007;53.090;6.074;2024-03-08T07:02:37;37.67;;;24.00;;
53108;SDS011;39007;53.090;6.074;2024-03-08T07:05:05;35.22;;;23.52;;
53108;SDS011;39007;53.090;6.074;2024-03-08T07:07:31;40.83;;;25.20;;
53108;SDS011;39007;53.090;6.074;2024-03-08T07:09:59;41.15;;;23.95;;
53108;SDS011;39007;53.090;6.074;2024-03-08T07:12:25;40.80;;;23.90;;
53108;SDS011;39007;53.090;6.074;2024-03-08T07:14:51;39.10;;;23.63;;
53108;SDS011;39007;53.090;6.074;2024-03-08T07:17:18;40.58;;;24.42;;
53108;SDS011;39007;53.090;6.074;2024-03-08T07:19:44;36.67;;;24.67;;
53108;SDS011;39007;53.090;6.074;2024-03-08T07:22:10;40.78;;;23.95;;
53108;SDS011;39007;53.090;6.074;2024-03-08T07:24:36;34.90;;;22.98;;
53108;SDS011;39007;53.090;6.074;2024-03-08T07:27:15;33.83;;;22.50;;
53108;SDS011;39007;53.090;6.074;2024-03-08T07:29:42;35.28;;;22.20;;
53108;SDS011;39007;53.090;6.074;2024-03-08T07:32:08;37.65;;;23.63;;
53108;SDS011;39007;53.090;6.074;2024-03-08T07:34:46;40.08;;;24.30;;
53108;SDS011;39007;53.090;6.074;2024-03-08T07:37:13;36.55;;;23.73;;
53108;SDS011;39007;53.090;6.074;2024-03-08T07:39:39;36.05;;;23.17;;
53108;SDS011;39007;53.090;6.074;2024-03-08T07:42:05;34.92;;;22.30;;
53108;SDS011;39007;53.090;6.074;2024-03-08T07:44:31;40.00;;;25.35;;
53108;SDS011;39007;53.090;6.074;2024-03-08T07:46:58;36.63;;;23.73;;
53108;SDS011;39007;53.090;6.074;2024-03-08T07:49:24;35.65;;;23.35;;
53108;SDS011;39007;53.090;6.074;2024-03-08T07:51:51;35.03;;;23.48;;
53108;SDS011;39007;53.090;6.074;2024-03-08T07:54:17;37.67;;;24.48;;
53108;SDS011;39007;53.090;6.074;2024-03-08T07:56:43;37.60;;;23.63;;
53108;SDS011;39007;53.090;6.074;2024-03-08T07:59:09;34.38;;;22.80;;
53108;SDS011;39007;53.090;6.074;2024-03-08T08:01:37;34.35;;;23.15;;
53108;SDS011;39007;53.090;6.074;2024-03-08T08:04:03;34.50;;;23.08;;
53108;SDS011;39007;53.090;6.074;2024-03-08T08:06:30;37.28;;;24.10;;
53108;SDS011;39007;53.090;6.074;2024-03-08T08:09:00;37.20;;;23.25;;
53108;SDS011;39007;53.090;6.074;2024-03-08T08:11:26;37.50;;;25.17;;
53108;SDS011;39007;53.090;6.074;2024-03-08T08:13:55;34.38;;;23.88;;
53108;SDS011;39007;53.090;6.074;2024-03-08T08:16:25;38.90;;;23.90;;
53108;SDS011;39007;53.090;6.074;2024-03-08T08:18:51;37.92;;;22.58;;
53108;SDS011;39007;53.090;6.074;2024-03-08T08:21:18;37.95;;;23.30;;
53108;SDS011;39007;53.090;6.074;2024-03-08T08:23:44;36.28;;;23.17;;
53108;SDS011;39007;53.090;6.074;2024-03-08T08:26:11;37.28;;;25.02;;
53108;SDS011;39007;53.090;6.074;2024-03-08T08:28:37;34.85;;;23.75;;
53108;SDS011;39007;53.090;6.074;2024-03-08T08:31:03;33.45;;;21.60;;
53108;SDS011;39007;53.090;6.074;2024-03-08T08:33:29;34.47;;;22.73;;
53108;SDS011;39007;53.090;6.074;2024-03-08T08:35:56;40.70;;;24.85;;
53108;SDS011;39007;53.090;6.074;2024-03-08T08:38:23;31.95;;;22.35;;
53108;SDS011;39007;53.090;6.074;2024-03-08T08:40:49;34.78;;;23.48;;
53108;SDS011;39007;53.090;6.074;2024-03-08T08:43:16;35.17;;;23.80;;
53108;SDS011;39007;53.090;6.074;2024-03-08T08:45:42;33.28;;;21.60;;
53108;SDS011;39007;53.090;6.074;2024-03-08T08:48:09;30.25;;;21.30;;
53108;SDS011;39007;53.090;6.074;2024-03-08T08:50:35;32.38;;;22.92;;
53108;SDS011;39007;53.090;6.074;2024-03-08T08:53:02;35.42;;;23.25;;
53108;SDS011;39007;53.090;6.074;2024-03-08T08:55:28;33.58;;;22.92;;
53108;SDS011;39007;53.090;6.074;2024-03-08T08:57:56;32.03;;;21.90;;
53108;SDS011;39007;53.090;6.074;2024-03-08T09:00:22;33.88;;;23.77;;
53108;SDS011;39007;53.090;6.074;2024-03-08T09:02:52;34.70;;;21.95;;
53108;SDS011;39007;53.090;6.074;2024-03-08T09:05:20;30.73;;;21.77;;
53108;SDS011;39007;53.090;6.074;2024-03-08T09:07:49;33.17;;;23.73;;
53108;SDS011;39007;53.090;6.074;2024-03-08T09:10:15;30.17;;;21.42;;
53108;SDS011;39007;53.090;6.074;2024-03-08T09:12:41;30.73;;;21.23;;
53108;SDS011;39007;53.090;6.074;2024-03-08T09:15:07;30.48;;;23.05;;
53108;SDS011;39007;53.090;6.074;2024-03-08T09:17:34;33.38;;;22.88;;
53108;SDS011;39007;53.090;6.074;2024-03-08T09:20:00;32.70;;;22.52;;
53108;SDS011;39007;53.090;6.074;2024-03-08T09:22:29;30.65;;;23.00;;
53108;SDS011;39007;53.090;6.074;2024-03-08T09:24:55;30.48;;;22.50;;
53108;SDS011;39007;53.090;6.074;2024-03-08T09:27:22;31.98;;;23.88;;
53108;SDS011;39007;53.090;6.074;2024-03-08T09:29:49;31.50;;;22.23;;
53108;SDS011;39007;53.090;6.074;2024-03-08T09:32:15;32.35;;;23.60;;
53108;SDS011;39007;53.090;6.074;2024-03-08T09:34:42;39.58;;;24.13;;
53108;SDS011;39007;53.090;6.074;2024-03-08T09:37:08;30.50;;;22.48;;
53108;SDS011;39007;53.090;6.074;2024-03-08T09:39:34;28.73;;;20.42;;
53108;SDS011;39007;53.090;6.074;2024-03-08T09:42:01;33.50;;;23.52;;
53108;SDS011;39007;53.090;6.074;2024-03-08T09:44:27;29.77;;;22.95;;
53108;SDS011;39007;53.090;6.074;2024-03-08T09:46:57;34.95;;;23.35;;
53108;SDS011;39007;53.090;6.074;2024-03-08T09:49:24;32.72;;;23.38;;
53108;SDS011;39007;53.090;6.074;2024-03-08T09:51:50;30.75;;;23.08;;
53108;SDS011;39007;53.090;6.074;2024-03-08T09:54:16;31.65;;;22.88;;
53108;SDS011;39007;53.090;6.074;2024-03-08T09:56:45;31.05;;;23.17;;
53108;SDS011;39007;53.090;6.074;2024-03-08T09:59:13;31.25;;;22.55;;
53108;SDS011;39007;53.090;6.074;2024-03-08T10:02:05;28.73;;;22.38;;
53108;SDS011;39007;53.090;6.074;2024-03-08T10:04:31;29.33;;;22.13;;
53108;SDS011;39007;53.090;6.074;2024-03-08T10:06:58;33.72;;;23.08;;
53108;SDS011;39007;53.090;6.074;2024-03-08T10:09:27;33.42;;;23.35;;
53108;SDS011;39007;53.090;6.074;2024-03-08T10:11:57;28.30;;;21.08;;
53108;SDS011;39007;53.090;6.074;2024-03-08T10:14:24;29.23;;;21.40;;
53108;SDS011;39007;53.090;6.074;2024-03-08T10:16:51;30.50;;;20.75;;
53108;SDS011;39007;53.090;6.074;2024-03-08T10:19:18;32.60;;;22.67;;
53108;SDS011;39007;53.090;6.074;2024-03-08T10:21:50;30.52;;;23.25;;
53108;SDS011;39007;53.090;6.074;2024-03-08T10:24:22;29.17;;;23.27;;
53108;SDS011;39007;53.090;6.074;2024-03-08T10:26:51;27.10;;;19.05;;
53108;SDS011;39007;53.090;6.074;2024-03-08T10:29:17;32.25;;;23.20;;
53108;SDS011;39007;53.090;6.074;2024-03-08T10:31:45;29.52;;;22.85;;
53108;SDS011;39007;53.090;6.074;2024-03-08T10:34:11;31.55;;;23.23;;
53108;SDS011;39007;53.090;6.074;2024-03-08T10:36:37;32.00;;;21.55;;
53108;SDS011;39007;53.090;6.074;2024-03-08T10:39:16;30.80;;;22.88;;
53108;SDS011;39007;53.090;6.074;2024-03-08T10:41:44;31.05;;;23.50;;
53108;SDS011;39007;53.090;6.074;2024-03-08T10:49:16;29.88;;;22.88;;
53108;SDS011;39007;53.090;6.074;2024-03-08T10:51:43;31.15;;;24.05;;
53108;SDS011;39007;53.090;6.074;2024-03-08T10:54:09;30.88;;;23.80;;
53108;SDS011;39007;53.090;6.074;2024-03-08T10:56:36;32.55;;;23.85;;
53108;SDS011;39007;53.090;6.074;2024-03-08T10:59:02;28.25;;;23.35;;
53108;SDS011;39007;53.090;6.074;2024-03-08T11:01:30;29.05;;;24.27;;
53108;SDS011;39007;53.090;6.074;2024-03-08T11:03:56;30.75;;;22.85;;
53108;SDS011;39007;53.090;6.074;2024-03-08T11:06:23;30.23;;;23.10;;
53108;SDS011;39007;53.090;6.074;2024-03-08T11:08:55;29.20;;;23.02;;
53108;SDS011;39007;53.090;6.074;2024-03-08T11:11:30;30.67;;;23.55;;
53108;SDS011;39007;53.090;6.074;2024-03-08T11:13:57;28.42;;;22.67;;
53108;SDS011;39007;53.090;6.074;2024-03-08T11:18:54;29.52;;;23.63;;
53108;SDS011;39007;53.090;6.074;2024-03-08T11:21:22;32.90;;;23.67;;
53108;SDS011;39007;53.090;6.074;2024-03-08T11:24:01;28.38;;;22.33;;
53108;SDS011;39007;53.090;6.074;2024-03-08T11:26:28;29.15;;;23.17;;
53108;SDS011;39007;53.090;6.074;2024-03-08T11:31:45;28.75;;;22.92;;
53108;SDS011;39007;53.090;6.074;2024-03-08T11:34:15;32.17;;;23.80;;
53108;SDS011;39007;53.090;6.074;2024-03-08T11:36:42;31.77;;;24.08;;
53108;SDS011;39007;53.090;6.074;2024-03-08T11:39:08;32.60;;;23.55;;
53108;SDS011;39007;53.090;6.074;2024-03-08T11:41:39;29.10;;;22.33;;
53108;SDS011;39007;53.090;6.074;2024-03-08T11:44:07;30.35;;;24.55;;
53108;SDS011;39007;53.090;6.074;2024-03-08T11:46:34;29.02;;;23.08;;
53108;SDS011;39007;53.090;6.074;2024-03-08T11:49:01;28.08;;;23.50;;
53108;SDS011;39007;53.090;6.074;2024-03-08T11:51:28;28.23;;;23.00;;
53108;SDS011;39007;53.090;6.074;2024-03-08T11:53:55;31.63;;;24.05;;
53108;SDS011;39007;53.090;6.074;2024-03-08T11:56:21;29.55;;;23.08;;
53108;SDS011;39007;53.090;6.074;2024-03-08T11:58:54;30.17;;;22.90;;
53108;SDS011;39007;53.090;6.074;2024-03-08T12:01:23;27.63;;;22.27;;
53108;SDS011;39007;53.090;6.074;2024-03-08T12:03:56;29.05;;;22.27;;
53108;SDS011;39007;53.090;6.074;2024-03-08T12:06:24;29.33;;;23.00;;
53108;SDS011;39007;53.090;6.074;2024-03-08T12:08:51;29.83;;;23.70;;
53108;SDS011;39007;53.090;6.074;2024-03-08T12:11:17;30.48;;;23.45;;
53108;SDS011;39007;53.090;6.074;2024-03-08T12:13:48;27.98;;;23.48;;
53108;SDS011;39007;53.090;6.074;2024-03-08T12:16:16;26.92;;;22.50;;
53108;SDS011;39007;53.090;6.074;2024-03-08T12:18:44;29.42;;;23.48;;
53108;SDS011;39007;53.090;6.074;2024-03-08T12:21:11;28.55;;;23.35;;
53108;SDS011;39007;53.090;6.074;2024-03-08T12:23:39;29.33;;;22.48;;
53108;SDS011;39007;53.090;6.074;2024-03-08T12:26:12;30.02;;;22.58;;
53108;SDS011;39007;53.090;6.074;2024-03-08T12:28:42;26.90;;;22.20;;
53108;SDS011;39007;53.090;6.074;2024-03-08T12:31:13;40.08;;;23.02;;
53108;SDS011;39007;53.090;6.074;2024-03-08T12:36:14;29.08;;;22.55;;
53108;SDS011;39007;53.090;6.074;2024-03-08T12:38:44;27.63;;;23.45;;
53108;SDS011;39007;53.090;6.074;2024-03-08T12:41:13;28.90;;;24.35;;
53108;SDS011;39007;53.090;6.074;2024-03-08T12:43:40;31.90;;;22.15;;
53108;SDS011;39007;53.090;6.074;2024-03-08T12:46:06;29.92;;;20.55;;
53108;SDS011;39007;53.090;6.074;2024-03-08T12:48:37;28.70;;;21.77;;
53108;SDS011;39007;53.090;6.074;2024-03-08T12:51:08;29.52;;;23.90;;
53108;SDS011;39007;53.090;6.074;2024-03-08T12:53:35;29.00;;;23.45;;
53108;SDS011;39007;53.090;6.074;2024-03-08T12:56:02;28.23;;;22.40;;
53108;SDS011;39007;53.090;6.074;2024-03-08T12:58:33;29.38;;;21.10;;
53108;SDS011;39007;53.090;6.074;2024-03-08T13:00:59;27.10;;;22.60;;
53108;SDS011;39007;53.090;6.074;2024-03-08T13:03:25;29.73;;;23.13;;
53108;SDS011;39007;53.090;6.074;2024-03-08T13:05:52;26.88;;;22.15;;
53108;SDS011;39007;53.090;6.074;2024-03-08T13:08:19;26.95;;;21.38;;
53108;SDS011;39007;53.090;6.074;2024-03-08T13:10:45;29.40;;;21.83;;
53108;SDS011;39007;53.090;6.074;2024-03-08T13:13:11;26.92;;;21.48;;
53108;SDS011;39007;53.090;6.074;2024-03-08T13:15:41;29.70;;;21.08;;
53108;SDS011;39007;53.090;6.074;2024-03-08T13:18:07;26.77;;;21.58;;
53108;SDS011;39007;53.090;6.074;2024-03-08T13:20:34;27.55;;;22.17;;
53108;SDS011;39007;53.090;6.074;2024-03-08T13:23:04;33.22;;;21.83;;
53108;SDS011;39007;53.090;6.074;2024-03-08T13:25:33;29.35;;;22.63;;
53108;SDS011;39007;53.090;6.074;2024-03-08T13:27:59;28.98;;;23.13;;
53108;SDS011;39007;53.090;6.074;2024-03-08T13:30:26;30.80;;;22.98;;
53108;SDS011;39007;53.090;6.074;2024-03-08T13:32:52;27.30;;;22.15;;
53108;SDS011;39007;53.090;6.074;2024-03-08T13:35:19;28.30;;;23.33;;
53108;SDS011;39007;53.090;6.074;2024-03-08T13:37:50;27.05;;;21.83;;
53108;SDS011;39007;53.090;6.074;2024-03-08T13:40:17;26.58;;;21.00;;
53108;SDS011;39007;53.090;6.074;2024-03-08T13:42:46;27.83;;;21.63;;
53108;SDS011;39007;53.090;6.074;2024-03-08T13:45:14;27.50;;;22.10;;
53108;SDS011;39007;53.090;6.074;2024-03-08T13:47:43;27.98;;;21.55;;
53108;SDS011;39007;53.090;6.074;2024-03-08T13:50:10;29.13;;;21.23;;
53108;SDS011;39007;53.090;6.074;2024-03-08T13:52:46;26.95;;;21.77;;
53108;SDS011;39007;53.090;6.074;2024-03-08T13:55:12;28.42;;;22.98;;
53108;SDS011;39007;53.090;6.074;2024-03-08T13:57:39;27.60;;;21.42;;
53108;SDS011;39007;53.090;6.074;2024-03-08T14:00:05;25.40;;;21.00;;
53108;SDS011;39007;53.090;6.074;2024-03-08T14:02:32;26.23;;;20.60;;
53108;SDS011;39007;53.090;6.074;2024-03-08T14:04:59;25.05;;;19.65;;
53108;SDS011;39007;53.090;6.074;2024-03-08T14:07:26;28.15;;;20.02;;
53108;SDS011;39007;53.090;6.074;2024-03-08T14:09:54;23.65;;;19.88;;
53108;SDS011;39007;53.090;6.074;2024-03-08T14:12:20;26.10;;;20.05;;
53108;SDS011;39007;53.090;6.074;2024-03-08T14:14:46;26.17;;;20.45;;
53108;SDS011;39007;53.090;6.074;2024-03-08T14:17:12;25.70;;;20.55;;
53108;SDS011;39007;53.090;6.074;2024-03-08T14:19:42;25.42;;;20.63;;
53108;SDS011;39007;53.090;6.074;2024-03-08T14:22:08;27.13;;;20.17;;
53108;SDS011;39007;53.090;6.074;2024-03-08T14:24:39;24.05;;;20.25;;
53108;SDS011;39007;53.090;6.074;2024-03-08T14:27:07;26.90;;;21.02;;
53108;SDS011;39007;53.090;6.074;2024-03-08T14:29:34;25.27;;;20.27;;
53108;SDS011;39007;53.090;6.074;2024-03-08T14:32:00;24.67;;;20.40;;
53108;SDS011;39007;53.090;6.074;2024-03-08T14:34:28;25.23;;;20.23;;
53108;SDS011;39007;53.090;6.074;2024-03-08T14:36:55;24.58;;;20.40;;
53108;SDS011;39007;53.090;6.074;2024-03-08T14:39:23;27.85;;;20.08;;